createdAt,value
2018-01-22T00:01:07.905Z,3.17
2018-01-22T00:03:35.560Z,3.13
2018-01-22T00:06:03.261Z,3.10
2018-01-22T00:08:30.982Z,3.17
2018-01-22T00:10:58.686Z,3.16
2018-01-22T00:13:26.362Z,3.13
2018-01-22T00:15:54.069Z,3.16
2018-01-22T00:18:21.778Z,3.22
2018-01-22T00:20:49.480Z,3.19
2018-01-22T00:23:17.251Z,3.21
2018-01-22T00:25:44.970Z,3.22
2018-01-22T00:28:12.666Z,3.23
2018-01-22T00:30:40.371Z,3.24
2018-01-22T00:33:08.090Z,3.27
2018-01-22T00:35:35.774Z,3.32
2018-01-22T00:38:03.459Z,3.32
2018-01-22T00:40:31.221Z,3.30
2018-01-22T00:42:58.902Z,3.29
2018-01-22T00:45:26.590Z,3.31
2018-01-22T00:47:54.265Z,3.34
2018-01-22T00:50:21.970Z,3.31
2018-01-22T00:52:49.648Z,3.33
2018-01-22T00:55:17.341Z,3.34
2018-01-22T00:57:45.018Z,3.37
2018-01-22T01:00:12.722Z,3.39
2018-01-22T01:02:40.382Z,3.39
2018-01-22T01:05:08.066Z,3.39
2018-01-22T01:07:35.730Z,3.36
2018-01-22T01:10:03.427Z,3.36
2018-01-22T01:12:31.169Z,3.33
2018-01-22T01:14:58.864Z,3.33
2018-01-22T01:17:26.529Z,3.32
2018-01-22T01:19:54.235Z,3.31
2018-01-22T01:22:21.909Z,3.32
2018-01-22T01:24:49.600Z,3.30
2018-01-22T01:27:17.270Z,3.33
2018-01-22T01:29:44.998Z,3.34
2018-01-22T01:32:12.685Z,3.31
2018-01-22T01:34:40.457Z,3.34
2018-01-22T01:37:08.157Z,3.34
2018-01-22T01:39:35.857Z,3.33
2018-01-22T01:42:03.632Z,3.33
2018-01-22T01:44:31.323Z,3.34
2018-01-22T01:46:59.022Z,3.37
2018-01-22T01:49:26.714Z,3.34
2018-01-22T01:51:54.400Z,3.35
2018-01-22T01:54:22.089Z,3.38
2018-01-22T01:56:49.761Z,3.41
2018-01-22T01:59:17.496Z,3.40
2018-01-22T02:01:45.169Z,3.37
2018-01-22T02:04:12.873Z,3.40
2018-01-22T02:06:40.573Z,3.39
2018-01-22T02:09:08.258Z,3.35
2018-01-22T02:11:35.964Z,3.34
2018-01-22T02:14:03.632Z,3.35
2018-01-22T02:16:31.300Z,3.35
2018-01-22T02:18:59.001Z,3.35
2018-01-22T02:21:26.673Z,3.36
2018-01-22T02:23:54.333Z,3.29
2018-01-22T02:26:22.070Z,3.32
2018-01-22T02:28:49.733Z,3.30
2018-01-22T02:31:17.461Z,3.31
2018-01-22T02:33:45.137Z,3.31
2018-01-22T02:36:12.870Z,3.31
2018-01-22T02:38:40.531Z,3.33
2018-01-22T02:41:08.227Z,3.31
2018-01-22T02:43:35.890Z,3.29
2018-01-22T02:46:03.588Z,3.31
2018-01-22T02:48:31.253Z,3.31
2018-01-22T02:50:58.947Z,3.33
2018-01-22T02:53:26.618Z,3.32
2018-01-22T02:55:54.302Z,3.32
2018-01-22T02:58:21.976Z,3.33
2018-01-22T03:00:49.693Z,3.34
2018-01-22T03:03:17.368Z,3.32
2018-01-22T03:05:45.086Z,3.32
2018-01-22T03:08:12.746Z,3.33
2018-01-22T03:10:40.450Z,3.34
2018-01-22T03:13:08.123Z,3.40
2018-01-22T03:15:35.809Z,3.41
2018-01-22T03:18:03.486Z,3.43
2018-01-22T03:20:31.234Z,3.50
2018-01-22T03:22:58.909Z,3.48
2018-01-22T03:25:26.613Z,3.47
2018-01-22T03:27:54.315Z,3.46
2018-01-22T03:30:22.105Z,3.48
2018-01-22T03:32:49.774Z,3.45
2018-01-22T03:35:17.613Z,3.45
2018-01-22T03:37:45.270Z,3.46
2018-01-22T03:40:12.980Z,3.46
2018-01-22T03:42:40.642Z,3.47
2018-01-22T03:45:08.353Z,3.46
2018-01-22T03:47:36.027Z,3.51
2018-01-22T03:50:03.754Z,3.51
2018-01-22T03:52:31.465Z,3.52
2018-01-22T03:54:59.153Z,3.54
2018-01-22T03:57:26.847Z,3.50
2018-01-22T03:59:54.553Z,3.54
2018-01-22T04:02:22.224Z,3.53
2018-01-22T04:04:49.918Z,3.51
2018-01-22T04:07:17.613Z,3.51
2018-01-22T04:09:45.321Z,3.52
2018-01-22T04:12:12.990Z,3.56
2018-01-22T04:14:40.670Z,3.58
2018-01-22T04:17:08.366Z,3.63
2018-01-22T04:19:36.068Z,3.64
2018-01-22T04:22:03.754Z,3.63
2018-01-22T04:24:31.415Z,3.60
2018-01-22T04:26:59.085Z,3.64
2018-01-22T04:29:26.781Z,3.67
2018-01-22T04:31:54.451Z,3.65
2018-01-22T04:34:22.150Z,3.63
2018-01-22T04:36:49.809Z,3.65
2018-01-22T04:39:17.530Z,3.64
2018-01-22T04:41:45.200Z,3.65
2018-01-22T04:44:12.885Z,3.71
2018-01-22T04:46:40.547Z,3.68
2018-01-22T04:49:08.238Z,3.68
2018-01-22T04:51:35.934Z,3.67
2018-01-22T04:54:03.622Z,3.68
2018-01-22T04:56:31.281Z,3.68
2018-01-22T04:58:58.971Z,3.72
2018-01-22T05:01:26.637Z,3.72
2018-01-22T05:03:54.326Z,3.71
2018-01-22T05:06:21.989Z,3.70
2018-01-22T05:08:49.678Z,3.71
2018-01-22T05:11:17.340Z,3.72
2018-01-22T05:13:45.034Z,3.73
2018-01-22T05:16:12.698Z,3.72
2018-01-22T05:18:40.414Z,3.71
2018-01-22T05:21:08.085Z,3.72
2018-01-22T05:23:35.782Z,3.76
2018-01-22T05:26:03.441Z,3.77
2018-01-22T05:28:31.143Z,3.79
2018-01-22T05:30:58.858Z,3.77
2018-01-22T05:33:26.527Z,3.79
2018-01-22T05:35:54.218Z,3.84
2018-01-22T05:38:21.889Z,3.89
2018-01-22T05:40:49.586Z,3.89
2018-01-22T05:43:17.252Z,3.94
2018-01-22T05:45:45.028Z,3.97
2018-01-22T05:48:12.682Z,3.98
2018-01-22T05:50:40.369Z,3.99
2018-01-22T05:53:08.101Z,4.03
2018-01-22T05:55:35.789Z,4.01
2018-01-22T05:58:03.447Z,4.05
2018-01-22T06:00:31.058Z,4.06
2018-01-22T06:02:58.746Z,4.05
2018-01-22T06:05:26.432Z,4.07
2018-01-22T06:07:54.085Z,4.09
2018-01-22T06:10:21.773Z,4.09
2018-01-22T06:12:49.450Z,4.18
2018-01-22T06:15:17.172Z,4.24
2018-01-22T06:17:44.824Z,4.31
2018-01-22T06:20:12.459Z,4.28
2018-01-22T06:22:40.049Z,4.23
2018-01-22T06:25:07.664Z,4.21
2018-01-22T06:27:35.340Z,4.20
2018-01-22T06:30:02.954Z,4.20
2018-01-22T06:32:30.618Z,4.22
2018-01-22T06:34:58.227Z,4.26
2018-01-22T06:37:25.893Z,4.26
2018-01-22T06:39:53.595Z,4.27
2018-01-22T06:42:21.190Z,4.27
2018-01-22T06:44:48.886Z,4.28
2018-01-22T06:47:16.566Z,4.29
2018-01-22T06:49:44.194Z,4.30
2018-01-22T06:52:12.029Z,4.33
2018-01-22T06:54:39.694Z,4.35
2018-01-22T06:57:07.362Z,4.36
2018-01-22T06:59:34.970Z,4.40
2018-01-22T07:02:02.634Z,4.41
2018-01-22T07:04:30.248Z,4.44
2018-01-22T07:06:57.833Z,4.51
2018-01-22T07:09:25.531Z,4.51
2018-01-22T07:11:53.139Z,4.49
2018-01-22T07:14:20.848Z,4.50
2018-01-22T07:16:48.486Z,4.43
2018-01-22T07:19:16.185Z,4.49
2018-01-22T07:21:43.853Z,4.48
2018-01-22T07:24:11.538Z,4.47
2018-01-22T07:26:39.134Z,4.50
2018-01-22T07:29:06.766Z,4.53
2018-01-22T07:31:34.382Z,4.61
2018-01-22T07:34:02.018Z,5.24
2018-01-22T07:36:29.614Z,5.14
2018-01-22T07:38:57.363Z,4.92
2018-01-22T07:41:24.950Z,4.80
2018-01-22T07:43:52.571Z,4.72
2018-01-22T07:46:20.165Z,4.66
2018-01-22T07:48:47.781Z,4.62
2018-01-22T07:51:15.390Z,4.60
2018-01-22T07:53:43.034Z,4.59
2018-01-22T07:56:12.578Z,4.60
2018-01-22T07:58:40.304Z,4.67
2018-01-22T08:01:07.933Z,4.75
2018-01-22T08:03:35.605Z,4.76
2018-01-22T08:06:03.201Z,4.74
2018-01-22T08:08:30.863Z,4.74
2018-01-22T08:10:58.534Z,4.74
2018-01-22T08:13:26.231Z,4.78
2018-01-22T08:15:53.824Z,4.84
2018-01-22T08:18:21.538Z,4.84
2018-01-22T08:20:49.235Z,4.86
2018-01-22T08:23:16.883Z,4.90
2018-01-22T08:25:44.475Z,4.91
2018-01-22T08:28:12.094Z,4.91
2018-01-22T08:30:39.701Z,4.87
2018-01-22T08:33:07.406Z,4.88
2018-01-22T08:35:35.007Z,4.83
2018-01-22T08:38:02.680Z,4.84
2018-01-22T08:40:30.288Z,4.84
2018-01-22T08:42:57.921Z,4.88
2018-01-22T08:45:25.567Z,4.93
2018-01-22T08:47:53.233Z,4.95
2018-01-22T08:50:20.846Z,4.98
2018-01-22T08:52:48.710Z,5.06
2018-01-22T08:55:16.331Z,5.08
2018-01-22T08:57:43.961Z,5.11
2018-01-22T09:00:11.566Z,5.17
2018-01-22T09:02:39.214Z,5.20
2018-01-22T09:05:06.803Z,5.27
2018-01-22T09:07:34.432Z,5.37
2018-01-22T09:10:02.071Z,5.48
2018-01-22T09:12:29.710Z,5.45
2018-01-22T09:14:57.338Z,5.44
2018-01-22T09:17:25.030Z,5.51
2018-01-22T09:19:52.669Z,5.57
2018-01-22T09:22:20.278Z,5.68
2018-01-22T09:24:47.969Z,5.73
2018-01-22T09:27:15.561Z,5.81
2018-01-22T09:29:43.222Z,5.90
2018-01-22T09:32:10.837Z,5.98
2018-01-22T09:34:38.475Z,6.10
2018-01-22T09:37:06.131Z,6.18
2018-01-22T09:39:33.745Z,6.20
2018-01-22T09:42:01.425Z,6.22
2018-01-22T09:44:29.038Z,6.24
2018-01-22T09:46:56.688Z,6.27
2018-01-22T09:49:24.317Z,6.31
2018-01-22T09:51:51.944Z,6.34
2018-01-22T09:54:19.553Z,6.40
2018-01-22T09:56:47.193Z,6.45
2018-01-22T09:59:14.858Z,6.47
2018-01-22T10:01:42.482Z,6.50
2018-01-22T10:04:10.104Z,6.54
2018-01-22T10:06:38.398Z,6.60
2018-01-22T10:09:06.014Z,6.69
2018-01-22T10:11:33.646Z,6.75
2018-01-22T10:14:01.254Z,6.82
2018-01-22T10:16:28.917Z,6.90
2018-01-22T10:18:56.519Z,6.99
2018-01-22T10:21:24.154Z,7.02
2018-01-22T10:23:51.805Z,7.07
2018-01-22T10:26:19.437Z,7.06
2018-01-22T10:28:47.052Z,7.06
2018-01-22T10:31:14.694Z,7.15
2018-01-22T10:33:42.335Z,7.16
2018-01-22T10:36:09.954Z,7.16
2018-01-22T10:38:37.570Z,7.24
2018-01-22T10:41:05.209Z,7.34
2018-01-22T10:43:32.818Z,7.44
2018-01-22T10:46:00.446Z,7.48
2018-01-22T10:48:28.134Z,7.53
2018-01-22T10:50:55.750Z,7.60
2018-01-22T10:53:23.393Z,7.71
2018-01-22T10:55:51.006Z,7.79
2018-01-22T10:58:18.654Z,7.91
2018-01-22T11:00:46.251Z,7.98
2018-01-22T11:03:13.895Z,8.07
2018-01-22T11:05:41.494Z,8.09
2018-01-22T11:08:09.145Z,8.16
2018-01-22T11:10:36.739Z,8.27
2018-01-22T11:13:04.398Z,8.33
2018-01-22T11:15:37.479Z,8.35
2018-01-22T11:18:05.114Z,8.42
2018-01-22T11:20:32.726Z,8.41
2018-01-22T11:23:00.381Z,8.41
2018-01-22T11:25:27.983Z,8.44
2018-01-22T11:27:55.605Z,8.51
2018-01-22T11:30:23.210Z,8.46
2018-01-22T11:32:50.834Z,8.47
2018-01-22T11:35:18.453Z,8.52
2018-01-22T11:37:46.082Z,8.56
2018-01-22T11:40:13.794Z,8.59
2018-01-22T11:42:41.415Z,8.67
2018-01-22T11:45:09.024Z,8.72
2018-01-22T11:47:36.641Z,8.80
2018-01-22T11:50:04.274Z,8.83
2018-01-22T11:52:31.897Z,8.88
2018-01-22T11:54:59.518Z,8.90
2018-01-22T11:57:27.166Z,9.00
2018-01-22T11:59:54.779Z,9.01
2018-01-22T12:02:22.412Z,9.05
2018-01-22T12:04:50.103Z,9.06
2018-01-22T12:07:17.850Z,9.10
2018-01-22T12:09:45.470Z,9.11
2018-01-22T12:12:13.095Z,9.14
2018-01-22T12:14:40.683Z,9.27
2018-01-22T12:17:08.295Z,9.27
2018-01-22T12:19:35.957Z,9.27
2018-01-22T12:22:03.575Z,9.26
2018-01-22T12:24:31.205Z,9.24
2018-01-22T12:26:58.827Z,9.21
2018-01-22T12:29:26.427Z,9.21
2018-01-22T12:31:54.051Z,9.20
2018-01-22T12:34:21.645Z,9.18
2018-01-22T12:36:49.320Z,9.18
2018-01-22T12:39:16.926Z,9.15
2018-01-22T12:41:44.548Z,9.14
2018-01-22T12:44:12.162Z,9.11
2018-01-22T12:46:39.915Z,9.14
2018-01-22T12:49:07.502Z,9.19
2018-01-22T12:51:35.177Z,9.23
2018-01-22T12:54:02.767Z,9.21
2018-01-22T12:56:30.377Z,9.24
2018-01-22T12:58:58.010Z,9.24
2018-01-22T13:01:25.618Z,9.20
2018-01-22T13:03:53.237Z,9.20
2018-01-22T13:06:20.871Z,9.19
2018-01-22T13:08:48.469Z,9.18
2018-01-22T13:11:16.093Z,9.19
2018-01-22T13:13:43.698Z,9.16
2018-01-22T13:16:11.363Z,9.10
2018-01-22T13:18:38.957Z,9.11
2018-01-22T13:21:06.578Z,9.11
2018-01-22T13:23:34.215Z,9.11
2018-01-22T13:26:01.839Z,9.15
2018-01-22T13:28:29.439Z,9.20
2018-01-22T13:30:57.068Z,9.19
2018-01-22T13:33:24.653Z,9.18
2018-01-22T13:35:52.281Z,9.20
2018-01-22T13:38:19.930Z,9.19
2018-01-22T13:40:53.109Z,9.18
2018-01-22T13:43:20.707Z,9.19
2018-01-22T13:45:48.338Z,9.18
2018-01-22T13:48:15.949Z,9.14
2018-01-22T13:50:43.552Z,9.14
2018-01-22T13:53:11.202Z,9.16
2018-01-22T13:55:38.786Z,9.16
2018-01-22T13:58:06.421Z,9.18
2018-01-22T14:00:33.990Z,9.20
2018-01-22T14:03:01.629Z,9.20
2018-01-22T14:05:29.251Z,9.21
2018-01-22T14:07:56.922Z,9.20
2018-01-22T14:10:24.521Z,9.19
2018-01-22T14:12:52.158Z,9.19
2018-01-22T14:15:19.775Z,9.16
2018-01-22T14:17:47.369Z,9.18
2018-01-22T14:20:15.004Z,9.21
2018-01-22T14:22:42.606Z,9.17
2018-01-22T14:25:10.251Z,9.18
2018-01-22T14:27:37.866Z,9.12
2018-01-22T14:30:05.467Z,9.10
2018-01-22T14:32:33.129Z,9.13
2018-01-22T14:35:00.759Z,9.15
2018-01-22T14:37:28.374Z,9.14
2018-01-22T14:39:55.994Z,9.10
2018-01-22T14:42:23.574Z,9.08
2018-01-22T14:44:51.215Z,9.06
2018-01-22T14:47:18.822Z,9.05
2018-01-22T14:49:46.456Z,9.05
2018-01-22T14:52:14.118Z,9.08
2018-01-22T14:54:41.753Z,9.06
2018-01-22T14:57:09.372Z,9.04
2018-01-22T14:59:37.007Z,9.05
2018-01-22T15:02:04.588Z,9.05
2018-01-22T15:04:32.211Z,9.05
2018-01-22T15:06:59.841Z,9.07
2018-01-22T15:09:27.455Z,9.08
2018-01-22T15:11:55.043Z,9.05
2018-01-22T15:14:22.675Z,9.04
2018-01-22T15:16:50.286Z,9.22
2018-01-22T15:19:18.005Z,9.13
2018-01-22T15:21:45.604Z,9.08
2018-01-22T15:24:13.257Z,9.03
2018-01-22T15:26:40.913Z,9.05
2018-01-22T15:29:08.540Z,9.01
2018-01-22T15:31:36.201Z,8.98
2018-01-22T15:34:03.841Z,8.97
2018-01-22T15:36:31.467Z,9.01
2018-01-22T15:38:59.130Z,8.98
2018-01-22T15:41:26.737Z,8.98
2018-01-22T15:43:54.450Z,8.96
2018-01-22T15:46:22.026Z,8.92
2018-01-22T15:48:49.658Z,8.88
2018-01-22T15:51:17.259Z,8.88
2018-01-22T15:53:44.902Z,8.91
2018-01-22T15:56:12.507Z,8.90
2018-01-22T15:58:40.175Z,8.88
2018-01-22T16:01:07.777Z,8.88
2018-01-22T16:03:35.397Z,8.88
2018-01-22T16:06:02.997Z,8.89
2018-01-22T16:08:30.659Z,8.89
2018-01-22T16:10:58.251Z,8.89
2018-01-22T16:13:25.907Z,8.87
2018-01-22T16:15:53.507Z,8.87
2018-01-22T16:18:21.147Z,8.88
2018-01-22T16:20:48.744Z,8.86
2018-01-22T16:23:16.378Z,8.84
2018-01-22T16:25:43.983Z,8.86
2018-01-22T16:28:11.615Z,8.87
2018-01-22T16:30:39.204Z,8.89
2018-01-22T16:33:06.853Z,8.90
2018-01-22T16:35:34.462Z,8.92
2018-01-22T16:38:02.077Z,8.89
2018-01-22T16:40:29.694Z,8.85
2018-01-22T16:42:57.325Z,8.88
2018-01-22T16:45:24.913Z,8.88
2018-01-22T16:47:57.398Z,8.86
2018-01-22T16:50:25.011Z,8.87
2018-01-22T16:52:52.643Z,8.86
2018-01-22T16:55:20.256Z,8.88
2018-01-22T16:57:47.873Z,8.89
2018-01-22T17:00:15.530Z,8.89
2018-01-22T17:02:43.137Z,8.87
2018-01-22T17:05:10.783Z,8.87
2018-01-22T17:07:38.377Z,8.86
2018-01-22T17:10:06.003Z,8.86
2018-01-22T17:12:33.598Z,8.86
2018-01-22T17:15:01.235Z,8.85
2018-01-22T17:17:28.823Z,8.87
2018-01-22T17:19:56.454Z,8.86
2018-01-22T17:22:24.113Z,8.88
2018-01-22T17:24:51.767Z,8.89
2018-01-22T17:27:19.365Z,8.86
2018-01-22T17:29:47.014Z,8.87
2018-01-22T17:32:14.636Z,8.86
2018-01-22T17:34:42.332Z,8.89
2018-01-22T17:37:09.985Z,8.89
2018-01-22T17:39:37.593Z,8.88
2018-01-22T17:42:05.194Z,8.91
2018-01-22T17:44:32.859Z,8.88
2018-01-22T17:47:00.470Z,8.88
2018-01-22T17:49:28.142Z,8.90
2018-01-22T17:51:55.739Z,8.88
2018-01-22T17:54:23.369Z,8.87
2018-01-22T17:56:50.991Z,8.84
2018-01-22T17:59:18.608Z,8.84
2018-01-22T18:01:46.236Z,8.80
2018-01-22T18:04:13.870Z,8.81
2018-01-22T18:06:41.496Z,8.81
2018-01-22T18:09:09.153Z,8.82
2018-01-22T18:11:36.774Z,8.83
2018-01-22T18:14:04.407Z,8.85
2018-01-22T18:16:32.010Z,8.78
2018-01-22T18:18:59.691Z,8.80
2018-01-22T18:21:27.301Z,8.77
2018-01-22T18:23:54.951Z,8.75
2018-01-22T18:26:22.554Z,8.76
2018-01-22T18:28:50.181Z,8.71
2018-01-22T18:31:17.793Z,8.69
2018-01-22T18:33:45.443Z,8.71
2018-01-22T18:36:13.038Z,8.74
2018-01-22T18:38:40.695Z,8.75
2018-01-22T18:41:08.314Z,8.72
2018-01-22T18:43:35.939Z,8.70
2018-01-22T18:46:03.540Z,8.71
2018-01-22T18:48:31.202Z,8.70
2018-01-22T18:50:58.835Z,8.73
2018-01-22T18:53:26.514Z,8.70
2018-01-22T18:55:54.112Z,8.72
2018-01-22T18:58:21.826Z,8.71
2018-01-22T19:00:49.450Z,8.71
2018-01-22T19:03:17.102Z,8.70
2018-01-22T19:05:44.723Z,8.68
2018-01-22T19:08:12.377Z,8.70
2018-01-22T19:10:40.003Z,8.70
2018-01-22T19:13:07.630Z,8.70
2018-01-22T19:15:35.262Z,8.70
2018-01-22T19:18:02.892Z,8.67
2018-01-22T19:20:30.529Z,8.65
2018-01-22T19:22:58.137Z,8.65
2018-01-22T19:25:25.778Z,8.67
2018-01-22T19:27:53.418Z,8.65
2018-01-22T19:30:21.020Z,8.66
2018-01-22T19:32:48.676Z,8.64
2018-01-22T19:35:16.293Z,8.66
2018-01-22T19:37:43.922Z,8.65
2018-01-22T19:40:11.627Z,8.64
2018-01-22T19:42:40.760Z,8.64
2018-01-22T19:45:08.407Z,8.62
2018-01-22T19:47:36.029Z,8.62
2018-01-22T19:50:03.724Z,8.63
2018-01-22T19:52:31.374Z,8.65
2018-01-22T19:54:59.040Z,8.64
2018-01-22T19:57:26.625Z,8.62
2018-01-22T19:59:54.258Z,8.64
2018-01-22T20:02:21.974Z,8.66
2018-01-22T20:04:49.638Z,8.67
2018-01-22T20:07:17.214Z,8.67
2018-01-22T20:09:44.880Z,8.69
2018-01-22T20:12:12.668Z,8.70
2018-01-22T20:14:40.403Z,8.69
2018-01-22T20:17:08.018Z,8.68
2018-01-22T20:19:35.702Z,8.67
2018-01-22T20:22:03.327Z,8.66
2018-01-22T20:24:31.011Z,8.65
2018-01-22T20:26:58.660Z,8.63
2018-01-22T20:29:26.392Z,8.62
2018-01-22T20:31:54.044Z,8.61
2018-01-22T20:34:21.750Z,8.58
2018-01-22T20:36:49.354Z,8.61
2018-01-22T20:39:17.014Z,8.58
2018-01-22T20:41:44.605Z,8.58
2018-01-22T20:44:12.415Z,8.56
2018-01-22T20:46:40.030Z,8.56
2018-01-22T20:49:07.697Z,8.51
2018-01-22T20:51:35.293Z,8.50
2018-01-22T20:54:02.933Z,8.50
2018-01-22T20:56:30.534Z,8.46
2018-01-22T20:58:58.162Z,8.44
2018-01-22T21:01:25.743Z,8.43
2018-01-22T21:03:53.363Z,8.45
2018-01-22T21:06:21.002Z,8.44
2018-01-22T21:08:48.627Z,8.40
2018-01-22T21:11:16.278Z,8.41
2018-01-22T21:13:43.915Z,8.43
2018-01-22T21:16:11.543Z,8.44
2018-01-22T21:18:39.138Z,8.44
2018-01-22T21:21:06.794Z,8.45
2018-01-22T21:23:34.415Z,8.43
2018-01-22T21:26:02.038Z,8.45
2018-01-22T21:28:29.649Z,8.46
2018-01-22T21:30:57.330Z,8.49
2018-01-22T21:33:25.003Z,8.51
2018-01-22T21:35:52.656Z,8.48
2018-01-22T21:38:20.287Z,8.46
2018-01-22T21:40:47.917Z,8.46
2018-01-22T21:43:15.534Z,8.49
2018-01-22T21:45:43.270Z,8.45
2018-01-22T21:48:10.873Z,8.45
2018-01-22T21:50:38.650Z,8.45
2018-01-22T21:53:06.597Z,8.44
2018-01-22T21:55:34.272Z,8.45
2018-01-22T21:58:01.894Z,8.40
2018-01-22T22:00:29.520Z,8.38
2018-01-22T22:02:57.119Z,8.34
2018-01-22T22:05:24.751Z,8.33
2018-01-22T22:07:52.447Z,8.33
2018-01-22T22:10:20.109Z,8.29
2018-01-22T22:12:47.846Z,8.26
2018-01-22T22:15:15.471Z,8.23
2018-01-22T22:17:43.090Z,8.25
2018-01-22T22:20:10.735Z,8.21
2018-01-22T22:22:38.318Z,8.18
2018-01-22T22:25:05.971Z,8.18
2018-01-22T22:27:33.570Z,8.20
2018-01-22T22:30:01.203Z,8.17
2018-01-22T22:32:28.803Z,8.21
2018-01-22T22:34:56.422Z,8.18
2018-01-22T22:37:24.038Z,8.17
2018-01-22T22:39:51.705Z,8.16
2018-01-22T22:42:19.306Z,8.13
2018-01-22T22:44:46.921Z,8.10
2018-01-22T22:47:14.533Z,8.07
2018-01-22T22:49:42.147Z,8.09
2018-01-22T22:52:09.841Z,8.11
2018-01-22T22:54:37.428Z,8.10
2018-01-22T22:57:05.070Z,8.09
2018-01-22T22:59:32.702Z,8.10
2018-01-22T23:02:00.327Z,8.08
2018-01-22T23:04:27.958Z,8.09
2018-01-22T23:06:55.554Z,8.07
2018-01-22T23:09:23.170Z,8.09
2018-01-22T23:11:50.810Z,8.10
2018-01-22T23:14:18.477Z,8.06
2018-01-22T23:16:46.076Z,8.08
2018-01-22T23:19:13.751Z,8.09
2018-01-22T23:21:41.350Z,8.10
2018-01-22T23:24:08.993Z,8.06
2018-01-22T23:26:36.591Z,8.04
2018-01-22T23:29:04.262Z,8.04
2018-01-22T23:31:31.911Z,8.00
2018-01-22T23:33:59.523Z,7.99
2018-01-22T23:36:27.110Z,7.99
2018-01-22T23:38:54.743Z,8.01
2018-01-22T23:41:22.330Z,8.04
2018-01-22T23:43:49.958Z,8.04
2018-01-22T23:46:17.568Z,8.01
2018-01-22T23:48:45.197Z,8.01
2018-01-22T23:51:12.847Z,8.02
2018-01-22T23:53:40.611Z,7.98
2018-01-22T23:56:08.236Z,7.98
2018-01-22T23:58:35.882Z,7.98
